KAL801 LKPR-RKSI
Flight info
| Callsign | KAL801 |
|---|---|
| Flight time | N/A |
| Altitude | 35000 |
| Route | VOZ4H/12 VOZ DCT LIKSA DCT PEPIK DCT ALZUR DCT DEGET DCT GOMDI DCT DINRO N743 UDROS UM859 KARDE UN644 ROLIN DCT TETRO DCT BARAD M747 SUBUT T923 ERLEV L850 BAKUV N701 LARGI B701 KRS B738 NEBIT B476 TIMGA A480 OTBOR/K0909F350 N147 TRK Z621 ARBOL M610 RULAD/K0904S1065 A343 POSOT B215 FKG W188 GOVSA W66 DKO W69 HUR B339 LADIX W34 VAPGU W100 ORAVA W201 UNSEK A326 DONVO G597 AGAVO/N0495F350 Y644 REBIT REBIT2H |
| Aircraft | A35K/H-SDE2E3GHIJ3J4J5LM1ORWXY/LB1D1 |
Departure
| Time | 2026-05-06 18:59 |
|---|---|
| Airport | Václav Havel Airport Prague (LKPR) |
Arrival
| Time | N/A |
|---|---|
| Airport | Incheon International Airport (RKSI) |
| Time | Latitude | Longitude | Altitude | Speed | Heading |
|---|---|---|---|---|---|
| 2026-05-06 18:18 | 50.10618 | 14.26193 | 1183 ft | 0 kts | 34° |
| 2026-05-06 18:38 | 50.10606 | 14.26181 | 1177 ft | 4 kts | 27° |
| 2026-05-06 18:38 | 50.10584 | 14.26167 | 1179 ft | 4 kts | 4° |
| 2026-05-06 18:38 | 50.10563 | 14.26169 | 1175 ft | 4 kts | 331° |
| 2026-05-06 18:38 | 50.10546 | 14.26190 | 1177 ft | 4 kts | 300° |
| 2026-05-06 18:39 | 50.10536 | 14.26226 | 1183 ft | 3 kts | 284° |
| 2026-05-06 18:39 | 50.10535 | 14.26233 | 1183 ft | 5 kts | 284° |
| 2026-05-06 18:41 | 50.10535 | 14.26230 | 1183 ft | 1 kts | 284° |
| 2026-05-06 18:41 | 50.10540 | 14.26190 | 1183 ft | 6 kts | 272° |
| 2026-05-06 18:41 | 50.10534 | 14.26124 | 1183 ft | 3 kts | 261° |
| 2026-05-06 18:41 | 50.10534 | 14.26120 | 1183 ft | 3 kts | 261° |
| 2026-05-06 18:42 | 50.10527 | 14.26062 | 1187 ft | 4 kts | 259° |
| 2026-05-06 18:42 | 50.10523 | 14.26023 | 1188 ft | 5 kts | 259° |
| 2026-05-06 18:42 | 50.10526 | 14.25935 | 1188 ft | 13 kts | 289° |
| 2026-05-06 18:42 | 50.10575 | 14.25806 | 1188 ft | 13 kts | 300° |
| 2026-05-06 18:43 | 50.10623 | 14.25679 | 1186 ft | 15 kts | 299° |
| 2026-05-06 18:43 | 50.10676 | 14.25530 | 1177 ft | 17 kts | 300° |
| 2026-05-06 18:43 | 50.10722 | 14.25403 | 1175 ft | 0 kts | 299° |
| 2026-05-06 18:45 | 50.10724 | 14.25398 | 1174 ft | 3 kts | 299° |
| 2026-05-06 18:45 | 50.10735 | 14.25368 | 1174 ft | 6 kts | 299° |
| 2026-05-06 18:46 | 50.10769 | 14.25272 | 1173 ft | 1 kts | 299° |
| 2026-05-06 18:46 | 50.10769 | 14.25271 | 1173 ft | 0 kts | 299° |
| 2026-05-06 18:51 | 50.10774 | 14.25258 | 1173 ft | 3 kts | 299° |
| 2026-05-06 18:52 | 50.10785 | 14.25228 | 1174 ft | 4 kts | 299° |
| 2026-05-06 18:52 | 50.10804 | 14.25165 | 1174 ft | 8 kts | 289° |
| 2026-05-06 18:52 | 50.10808 | 14.25134 | 1174 ft | 0 kts | 279° |
| 2026-05-06 18:56 | 50.10809 | 14.25129 | 1174 ft | 3 kts | 279° |
| 2026-05-06 18:57 | 50.10816 | 14.25036 | 1176 ft | 12 kts | 275° |
| 2026-05-06 18:57 | 50.10820 | 14.24903 | 1171 ft | 13 kts | 269° |
| 2026-05-06 18:57 | 50.10810 | 14.24757 | 1174 ft | 13 kts | 259° |
| 2026-05-06 18:57 | 50.10789 | 14.24651 | 1173 ft | 9 kts | 246° |
| 2026-05-06 18:58 | 50.10757 | 14.24623 | 1172 ft | 4 kts | 169° |
| 2026-05-06 18:58 | 50.10745 | 14.24645 | 1172 ft | 0 kts | 126° |
| 2026-05-06 18:58 | 50.10745 | 14.24646 | 1172 ft | 0 kts | 126° |
| 2026-05-06 18:58 | 50.10732 | 14.24672 | 1171 ft | 21 kts | 126° |
| 2026-05-06 18:59 | 50.10507 | 14.25141 | 1176 ft | 85 kts | 126° |
| 2026-05-06 18:59 | 50.10036 | 14.26118 | 1200 ft | 139 kts | 127° |
| 2026-05-06 18:59 | 50.09402 | 14.27449 | 1531 ft | 155 kts | 124° |
| 2026-05-06 18:59 | 50.08769 | 14.28789 | 2198 ft | 154 kts | 125° |
| 2026-05-06 19:00 | 50.08097 | 14.30161 | 2536 ft | 166 kts | 125° |
| 2026-05-06 19:00 | 50.07373 | 14.31647 | 2695 ft | 178 kts | 125° |
| 2026-05-06 19:00 | 50.06597 | 14.33242 | 2839 ft | 192 kts | 126° |
| 2026-05-06 19:00 | 50.05759 | 14.34968 | 2983 ft | 207 kts | 126° |
| 2026-05-06 19:01 | 50.04858 | 14.36824 | 3140 ft | 223 kts | 126° |
| 2026-05-06 19:01 | 50.03890 | 14.38813 | 3297 ft | 237 kts | 126° |
| 2026-05-06 19:01 | 50.02871 | 14.40908 | 3430 ft | 255 kts | 127° |
| 2026-05-06 19:01 | 50.01780 | 14.43150 | 3786 ft | 262 kts | 127° |
| 2026-05-06 19:02 | 50.00674 | 14.45424 | 4274 ft | 264 kts | 128° |
| 2026-05-06 19:02 | 49.99553 | 14.47722 | 4803 ft | 266 kts | 128° |
| 2026-05-06 19:02 | 49.98292 | 14.49827 | 5272 ft | 267 kts | 144° |
| 2026-05-06 19:02 | 49.96737 | 14.51335 | 5831 ft | 266 kts | 153° |
| 2026-05-06 19:03 | 49.95108 | 14.52690 | 6401 ft | 266 kts | 154° |
| 2026-05-06 19:03 | 49.93467 | 14.54041 | 6930 ft | 268 kts | 155° |
| 2026-05-06 19:03 | 49.91801 | 14.55419 | 7433 ft | 271 kts | 155° |
| 2026-05-06 19:03 | 49.90127 | 14.56812 | 7970 ft | 274 kts | 155° |
| 2026-05-06 19:04 | 49.88440 | 14.58221 | 8503 ft | 277 kts | 155° |
| 2026-05-06 19:04 | 49.86732 | 14.59646 | 9070 ft | 279 kts | 155° |
| 2026-05-06 19:04 | 49.85023 | 14.61075 | 9622 ft | 282 kts | 156° |
| 2026-05-06 19:04 | 49.83268 | 14.62540 | 10033 ft | 290 kts | 156° |
| 2026-05-06 19:05 | 49.81441 | 14.64060 | 10236 ft | 305 kts | 155° |
| 2026-05-06 19:05 | 49.79542 | 14.65640 | 10459 ft | 320 kts | 155° |
| 2026-05-06 19:05 | 49.77539 | 14.67308 | 10678 ft | 334 kts | 155° |
| 2026-05-06 19:05 | 49.75450 | 14.69047 | 10890 ft | 347 kts | 155° |
| 2026-05-06 19:06 | 49.73279 | 14.70854 | 11124 ft | 360 kts | 155° |
| 2026-05-06 19:06 | 49.71029 | 14.72724 | 11340 ft | 372 kts | 155° |
| 2026-05-06 19:06 | 49.68751 | 14.74622 | 11634 ft | 380 kts | 155° |
| 2026-05-06 19:06 | 49.66407 | 14.76568 | 12103 ft | 384 kts | 154° |
| 2026-05-06 19:07 | 49.64037 | 14.78532 | 12596 ft | 387 kts | 155° |
| 2026-05-06 19:07 | 49.61649 | 14.80509 | 13075 ft | 391 kts | 155° |
| 2026-05-06 19:07 | 49.59245 | 14.82497 | 13568 ft | 394 kts | 154° |
| 2026-05-06 19:07 | 49.56829 | 14.84508 | 14032 ft | 396 kts | 153° |
| 2026-05-06 19:08 | 49.54525 | 14.86897 | 14479 ft | 403 kts | 143° |
| 2026-05-06 19:08 | 49.52569 | 14.90048 | 14972 ft | 411 kts | 130° |
| 2026-05-06 19:08 | 49.51048 | 14.93740 | 15426 ft | 416 kts | 123° |
| 2026-05-06 19:08 | 49.49676 | 14.97693 | 15855 ft | 421 kts | 120° |
| 2026-05-06 19:09 | 49.48376 | 15.01754 | 16309 ft | 424 kts | 119° |
| 2026-05-06 19:09 | 49.47095 | 15.05856 | 16749 ft | 427 kts | 120° |
| 2026-05-06 19:09 | 49.45800 | 15.09989 | 17190 ft | 430 kts | 120° |
| 2026-05-06 19:09 | 49.44480 | 15.14134 | 17648 ft | 432 kts | 121° |
| 2026-05-06 19:10 | 49.43135 | 15.18292 | 18062 ft | 435 kts | 121° |
| 2026-05-06 19:10 | 49.41771 | 15.22456 | 18469 ft | 437 kts | 121° |
| 2026-05-06 19:10 | 49.40410 | 15.26579 | 18869 ft | 439 kts | 121° |
| 2026-05-06 19:10 | 49.39019 | 15.30775 | 19279 ft | 441 kts | 122° |
| 2026-05-06 19:11 | 49.37622 | 15.34980 | 19693 ft | 444 kts | 122° |
| 2026-05-06 19:11 | 49.36212 | 15.39221 | 20113 ft | 446 kts | 122° |
| 2026-05-06 19:11 | 49.34792 | 15.43486 | 20550 ft | 449 kts | 122° |
| 2026-05-06 19:11 | 49.33382 | 15.47719 | 20960 ft | 451 kts | 122° |
| 2026-05-06 19:12 | 49.31942 | 15.52032 | 21387 ft | 454 kts | 122° |
| 2026-05-06 19:12 | 49.30494 | 15.56363 | 21814 ft | 457 kts | 122° |
| 2026-05-06 19:12 | 49.29039 | 15.60711 | 22249 ft | 459 kts | 122° |
| 2026-05-06 19:12 | 49.27575 | 15.65076 | 22671 ft | 462 kts | 122° |
| 2026-05-06 19:13 | 49.26097 | 15.69474 | 23104 ft | 465 kts | 122° |
| 2026-05-06 19:13 | 49.24633 | 15.73825 | 23474 ft | 467 kts | 122° |
| 2026-05-06 19:13 | 49.23134 | 15.78272 | 23795 ft | 470 kts | 122° |
| 2026-05-06 19:13 | 49.21626 | 15.82737 | 24121 ft | 474 kts | 122° |
| 2026-05-06 19:14 | 49.20108 | 15.87226 | 24431 ft | 477 kts | 122° |
| 2026-05-06 19:14 | 49.18575 | 15.91751 | 24780 ft | 479 kts | 122° |
| 2026-05-06 19:14 | 49.17037 | 15.96283 | 25083 ft | 482 kts | 122° |
| 2026-05-06 19:14 | 49.15505 | 16.00790 | 25406 ft | 485 kts | 122° |
| 2026-05-06 19:15 | 49.13943 | 16.05379 | 25722 ft | 488 kts | 122° |
| 2026-05-06 19:15 | 49.12360 | 16.10017 | 26044 ft | 490 kts | 122° |
| 2026-05-06 19:15 | 49.10790 | 16.14608 | 26346 ft | 493 kts | 122° |
| 2026-05-06 19:15 | 49.09199 | 16.19251 | 26638 ft | 496 kts | 122° |
| 2026-05-06 19:16 | 49.07595 | 16.23921 | 26945 ft | 498 kts | 122° |
| 2026-05-06 19:16 | 49.05977 | 16.28628 | 27232 ft | 501 kts | 123° |
| 2026-05-06 19:16 | 49.04352 | 16.33346 | 27515 ft | 504 kts | 123° |
| 2026-05-06 19:16 | 49.02716 | 16.38090 | 27790 ft | 506 kts | 123° |
| 2026-05-06 19:17 | 49.01087 | 16.42802 | 28075 ft | 509 kts | 123° |
| 2026-05-06 19:17 | 48.99435 | 16.47575 | 28342 ft | 511 kts | 123° |
| 2026-05-06 19:17 | 48.97773 | 16.52368 | 28634 ft | 512 kts | 123° |
| 2026-05-06 19:17 | 48.96102 | 16.57179 | 29026 ft | 512 kts | 123° |
| 2026-05-06 19:18 | 48.94435 | 16.61968 | 29397 ft | 511 kts | 123° |
| 2026-05-06 19:18 | 48.92764 | 16.66762 | 29738 ft | 511 kts | 123° |
| 2026-05-06 19:18 | 48.91096 | 16.71534 | 30044 ft | 511 kts | 123° |
| 2026-05-06 19:18 | 48.89421 | 16.76317 | 30330 ft | 511 kts | 123° |
| 2026-05-06 19:19 | 48.87750 | 16.81079 | 30609 ft | 511 kts | 123° |
| 2026-05-06 19:19 | 48.86098 | 16.85781 | 30877 ft | 511 kts | 123° |
| 2026-05-06 19:19 | 48.84423 | 16.90538 | 31147 ft | 510 kts | 123° |
| 2026-05-06 19:19 | 48.82747 | 16.95292 | 31419 ft | 509 kts | 123° |
| 2026-05-06 19:20 | 48.81074 | 17.00027 | 31678 ft | 509 kts | 123° |
| 2026-05-06 19:20 | 48.79389 | 17.04753 | 31934 ft | 507 kts | 124° |
| 2026-05-06 19:20 | 48.77531 | 17.09217 | 32183 ft | 502 kts | 130° |
| 2026-05-06 19:20 | 48.75501 | 17.13513 | 32438 ft | 500 kts | 131° |
| 2026-05-06 19:21 | 48.73427 | 17.17766 | 32706 ft | 499 kts | 132° |
| 2026-05-06 19:21 | 48.71335 | 17.21959 | 32975 ft | 497 kts | 132° |
| 2026-05-06 19:21 | 48.69234 | 17.26106 | 33206 ft | 496 kts | 133° |
| 2026-05-06 19:21 | 48.67123 | 17.30241 | 33441 ft | 496 kts | 133° |
| 2026-05-06 19:22 | 48.65007 | 17.34369 | 33647 ft | 495 kts | 133° |
| 2026-05-06 19:22 | 48.62903 | 17.38472 | 33856 ft | 494 kts | 133° |
| 2026-05-06 19:22 | 48.60794 | 17.42581 | 34021 ft | 494 kts | 133° |
| 2026-05-06 19:22 | 48.58715 | 17.46631 | 34198 ft | 494 kts | 133° |
| 2026-05-06 19:23 | 48.56601 | 17.50745 | 34355 ft | 493 kts | 133° |
| 2026-05-06 19:23 | 48.54496 | 17.54837 | 34519 ft | 493 kts | 133° |
| 2026-05-06 19:23 | 48.52393 | 17.58921 | 34657 ft | 493 kts | 133° |
| 2026-05-06 19:23 | 48.50289 | 17.63001 | 34780 ft | 493 kts | 133° |
| 2026-05-06 19:24 | 48.48166 | 17.67110 | 34811 ft | 496 kts | 132° |
| 2026-05-06 19:24 | 48.43906 | 17.75334 | 34814 ft | 499 kts | 132° |
| 2026-05-06 19:25 | 48.39629 | 17.83573 | 34812 ft | 498 kts | 132° |
| 2026-05-06 19:25 | 48.35379 | 17.91735 | 34820 ft | 497 kts | 132° |
| 2026-05-06 19:26 | 48.31099 | 17.99926 | 34813 ft | 497 kts | 132° |
| 2026-05-06 19:26 | 48.26842 | 18.08046 | 34816 ft | 497 kts | 132° |
| 2026-05-06 19:27 | 48.22552 | 18.16208 | 34821 ft | 497 kts | 132° |
| 2026-05-06 19:27 | 48.18249 | 18.24369 | 34830 ft | 498 kts | 132° |
| 2026-05-06 19:28 | 48.13973 | 18.32456 | 34834 ft | 498 kts | 132° |
| 2026-05-06 19:28 | 48.09658 | 18.40589 | 34841 ft | 498 kts | 132° |
| 2026-05-06 19:29 | 48.05347 | 18.48694 | 34848 ft | 497 kts | 132° |
| 2026-05-06 19:29 | 48.01562 | 18.55789 | 34852 ft | 497 kts | 132° |
| 2026-05-06 19:30 | 47.97647 | 18.63108 | 34858 ft | 497 kts | 133° |
| 2026-05-06 19:30 | 47.93339 | 18.71138 | 34861 ft | 497 kts | 133° |
| 2026-05-06 19:31 | 47.88999 | 18.79203 | 34868 ft | 497 kts | 133° |
| 2026-05-06 19:31 | 47.82521 | 18.91197 | 34876 ft | 497 kts | 133° |
| 2026-05-06 19:32 | 47.78909 | 18.97863 | 34875 ft | 497 kts | 133° |
| 2026-05-06 19:32 | 47.74566 | 19.05855 | 34881 ft | 496 kts | 133° |
| 2026-05-06 19:33 | 47.70216 | 19.13835 | 34890 ft | 496 kts | 133° |
| 2026-05-06 19:33 | 47.65897 | 19.21737 | 34895 ft | 496 kts | 133° |
| 2026-05-06 19:34 | 47.61548 | 19.29671 | 34902 ft | 495 kts | 133° |
| 2026-05-06 19:34 | 47.57193 | 19.37594 | 34908 ft | 495 kts | 133° |
| 2026-05-06 19:35 | 47.52837 | 19.45493 | 34906 ft | 495 kts | 133° |
| 2026-05-06 19:35 | 47.48500 | 19.53335 | 34901 ft | 495 kts | 133° |
| 2026-05-06 19:36 | 47.44132 | 19.61210 | 34899 ft | 495 kts | 133° |
| 2026-05-06 19:36 | 47.39756 | 19.69076 | 34891 ft | 495 kts | 133° |
| 2026-05-06 19:37 | 47.35400 | 19.76884 | 34888 ft | 496 kts | 133° |
| 2026-05-06 19:37 | 47.31014 | 19.84725 | 34890 ft | 496 kts | 133° |
| 2026-05-06 19:38 | 47.26616 | 19.92564 | 34896 ft | 496 kts | 133° |
| 2026-05-06 19:38 | 47.22196 | 20.00419 | 34903 ft | 497 kts | 133° |
| 2026-05-06 19:39 | 47.17795 | 20.08218 | 34908 ft | 498 kts | 133° |
| 2026-05-06 19:39 | 47.13363 | 20.16051 | 34913 ft | 498 kts | 133° |
| 2026-05-06 19:40 | 47.08924 | 20.23873 | 34909 ft | 499 kts | 133° |
| 2026-05-06 19:40 | 47.04469 | 20.31701 | 34906 ft | 499 kts | 133° |
| 2026-05-06 19:41 | 47.00027 | 20.39483 | 34896 ft | 500 kts | 133° |
| 2026-05-06 19:41 | 46.95557 | 20.47292 | 34890 ft | 500 kts | 133° |
| 2026-05-06 19:42 | 46.91072 | 20.55104 | 34902 ft | 500 kts | 133° |
| 2026-05-06 19:42 | 46.86580 | 20.62908 | 34895 ft | 501 kts | 133° |
| 2026-05-06 19:43 | 46.82106 | 20.70657 | 34900 ft | 501 kts | 133° |
| 2026-05-06 19:43 | 46.77608 | 20.78426 | 34900 ft | 501 kts | 133° |
| 2026-05-06 19:44 | 46.73100 | 20.86191 | 34907 ft | 501 kts | 133° |
| 2026-05-06 19:44 | 46.68586 | 20.93942 | 34908 ft | 502 kts | 133° |
| 2026-05-06 19:45 | 46.64057 | 21.01698 | 34910 ft | 502 kts | 133° |
| 2026-05-06 19:45 | 46.59549 | 21.09397 | 34916 ft | 502 kts | 133° |
| 2026-05-06 19:46 | 46.55004 | 21.17137 | 34915 ft | 503 kts | 133° |
| 2026-05-06 19:46 | 46.50519 | 21.24938 | 34923 ft | 504 kts | 128° |
| 2026-05-06 19:47 | 46.47051 | 21.33837 | 34926 ft | 508 kts | 117° |
| 2026-05-06 19:47 | 46.44065 | 21.43074 | 34929 ft | 509 kts | 116° |
| 2026-05-06 19:48 | 46.41111 | 21.52435 | 34931 ft | 509 kts | 116° |
| 2026-05-06 19:48 | 46.38137 | 21.61757 | 34933 ft | 509 kts | 116° |
| 2026-05-06 19:49 | 46.35137 | 21.71057 | 34937 ft | 509 kts | 117° |
| 2026-05-06 19:49 | 46.32142 | 21.80289 | 34945 ft | 510 kts | 117° |
| 2026-05-06 19:50 | 46.29119 | 21.89575 | 34948 ft | 510 kts | 117° |
| 2026-05-06 19:50 | 46.26105 | 21.98800 | 34949 ft | 510 kts | 117° |
| 2026-05-06 19:51 | 46.23068 | 22.08068 | 34957 ft | 510 kts | 117° |
| 2026-05-06 19:51 | 46.20018 | 22.17340 | 34958 ft | 511 kts | 117° |
| 2026-05-06 19:52 | 46.16961 | 22.26602 | 34962 ft | 511 kts | 117° |
| 2026-05-06 19:52 | 46.13888 | 22.35876 | 34967 ft | 512 kts | 117° |
| 2026-05-06 19:53 | 46.10825 | 22.45087 | 34970 ft | 512 kts | 116° |
| 2026-05-06 19:53 | 46.07735 | 22.54352 | 34975 ft | 513 kts | 116° |
| 2026-05-06 19:54 | 46.04635 | 22.63609 | 34980 ft | 513 kts | 116° |
| 2026-05-06 19:54 | 46.01525 | 22.72865 | 34981 ft | 513 kts | 116° |
| 2026-05-06 19:55 | 45.98421 | 22.82071 | 34984 ft | 513 kts | 116° |
| 2026-05-06 19:55 | 45.95293 | 22.91316 | 34989 ft | 514 kts | 116° |
| 2026-05-06 19:56 | 45.92201 | 23.00421 | 34993 ft | 514 kts | 116° |
| 2026-05-06 19:56 | 45.89056 | 23.09654 | 34991 ft | 514 kts | 116° |
| 2026-05-06 19:57 | 45.85906 | 23.18867 | 35001 ft | 515 kts | 116° |
| 2026-05-06 19:57 | 45.82757 | 23.28042 | 35000 ft | 515 kts | 116° |
| 2026-05-06 19:58 | 45.79621 | 23.37150 | 35006 ft | 515 kts | 116° |
| 2026-05-06 19:58 | 45.76440 | 23.46359 | 35010 ft | 515 kts | 116° |
| 2026-05-06 19:59 | 45.73247 | 23.55570 | 35023 ft | 516 kts | 116° |
| 2026-05-06 19:59 | 45.70049 | 23.64761 | 35033 ft | 516 kts | 116° |
| 2026-05-06 20:00 | 45.66839 | 23.73955 | 35025 ft | 517 kts | 116° |
| 2026-05-06 20:00 | 45.63630 | 23.83117 | 35019 ft | 517 kts | 116° |
| 2026-05-06 20:01 | 45.60397 | 23.92316 | 35019 ft | 517 kts | 116° |
| 2026-05-06 20:01 | 45.57160 | 24.01495 | 35019 ft | 517 kts | 116° |
| 2026-05-06 20:02 | 45.53932 | 24.10615 | 35013 ft | 518 kts | 116° |
| 2026-05-06 20:02 | 45.50669 | 24.19805 | 35020 ft | 518 kts | 116° |
| 2026-05-06 20:03 | 45.47399 | 24.28979 | 35032 ft | 519 kts | 116° |
| 2026-05-06 20:03 | 45.44137 | 24.38103 | 35035 ft | 519 kts | 116° |
| 2026-05-06 20:04 | 45.40848 | 24.47270 | 35039 ft | 519 kts | 116° |
| 2026-05-06 20:04 | 45.37575 | 24.56362 | 35053 ft | 519 kts | 116° |
| 2026-05-06 20:05 | 45.34273 | 24.65505 | 35050 ft | 519 kts | 116° |
| 2026-05-06 20:05 | 45.30964 | 24.74633 | 35053 ft | 519 kts | 116° |
| 2026-05-06 20:06 | 45.27651 | 24.83748 | 35065 ft | 519 kts | 116° |
| 2026-05-06 20:06 | 45.24348 | 24.92802 | 35058 ft | 519 kts | 116° |
| 2026-05-06 20:07 | 45.21020 | 25.01894 | 35068 ft | 519 kts | 116° |
| 2026-05-06 20:07 | 45.17715 | 25.10891 | 35059 ft | 519 kts | 116° |
| 2026-05-06 20:08 | 45.14372 | 25.19962 | 35060 ft | 519 kts | 116° |
| 2026-05-06 20:08 | 45.11041 | 25.28973 | 35059 ft | 519 kts | 116° |
| 2026-05-06 20:09 | 45.07683 | 25.38024 | 35056 ft | 519 kts | 116° |
| 2026-05-06 20:09 | 45.04311 | 25.47084 | 35056 ft | 519 kts | 116° |
| 2026-05-06 20:10 | 45.00942 | 25.56109 | 35052 ft | 519 kts | 116° |
| 2026-05-06 20:10 | 44.97578 | 25.65089 | 35046 ft | 519 kts | 116° |
| 2026-05-06 20:11 | 44.94191 | 25.74100 | 35044 ft | 519 kts | 116° |
| 2026-05-06 20:11 | 44.90793 | 25.83111 | 35046 ft | 519 kts | 116° |
| 2026-05-06 20:12 | 44.87393 | 25.92098 | 35047 ft | 519 kts | 116° |
| 2026-05-06 20:12 | 44.83985 | 26.01029 | 35048 ft | 519 kts | 116° |
| 2026-05-06 20:13 | 44.80510 | 26.09957 | 35043 ft | 519 kts | 117° |
| 2026-05-06 20:13 | 44.77039 | 26.18839 | 35048 ft | 519 kts | 117° |
| 2026-05-06 20:14 | 44.73547 | 26.27769 | 35046 ft | 520 kts | 117° |
| 2026-05-06 20:14 | 44.70051 | 26.36693 | 35046 ft | 520 kts | 117° |
| 2026-05-06 20:15 | 44.66579 | 26.45529 | 35046 ft | 520 kts | 117° |
| 2026-05-06 20:15 | 44.63073 | 26.54422 | 35048 ft | 520 kts | 117° |
| 2026-05-06 20:16 | 44.59563 | 26.63297 | 35048 ft | 520 kts | 117° |
| 2026-05-06 20:16 | 44.56042 | 26.72172 | 35046 ft | 520 kts | 117° |
| 2026-05-06 20:17 | 44.52516 | 26.81032 | 35054 ft | 520 kts | 117° |
| 2026-05-06 20:17 | 44.48985 | 26.89874 | 35055 ft | 520 kts | 117° |
| 2026-05-06 20:18 | 44.45468 | 26.98657 | 35056 ft | 520 kts | 117° |
| 2026-05-06 20:18 | 44.41919 | 27.07489 | 35059 ft | 520 kts | 117° |
| 2026-05-06 20:19 | 44.38961 | 27.14831 | 35062 ft | 520 kts | 117° |
| 2026-05-06 20:19 | 44.35401 | 27.23640 | 35065 ft | 520 kts | 117° |
| 2026-05-06 20:20 | 44.31857 | 27.32386 | 35068 ft | 519 kts | 117° |
| 2026-05-06 20:20 | 44.28281 | 27.41180 | 35069 ft | 519 kts | 117° |
| 2026-05-06 20:21 | 44.24721 | 27.49909 | 35074 ft | 519 kts | 117° |
| 2026-05-06 20:21 | 44.21131 | 27.58686 | 35081 ft | 519 kts | 117° |
| 2026-05-06 20:22 | 44.17550 | 27.67411 | 35070 ft | 518 kts | 117° |
| 2026-05-06 20:22 | 44.13987 | 27.76068 | 35082 ft | 517 kts | 117° |
| 2026-05-06 20:23 | 44.10399 | 27.84757 | 35087 ft | 517 kts | 117° |
| 2026-05-06 20:23 | 44.06803 | 27.93442 | 35093 ft | 516 kts | 117° |
| 2026-05-06 20:24 | 44.03227 | 28.02050 | 35096 ft | 516 kts | 117° |
| 2026-05-06 20:24 | 43.99630 | 28.10685 | 35100 ft | 515 kts | 117° |
| 2026-05-06 20:25 | 43.96052 | 28.19247 | 35099 ft | 515 kts | 117° |
| 2026-05-06 20:25 | 43.92450 | 28.27840 | 35105 ft | 515 kts | 117° |
| 2026-05-06 20:26 | 43.88839 | 28.36430 | 35108 ft | 514 kts | 117° |
| 2026-05-06 20:26 | 43.85225 | 28.45000 | 35110 ft | 514 kts | 117° |
| 2026-05-06 20:27 | 43.81612 | 28.53544 | 35107 ft | 514 kts | 117° |
| 2026-05-06 20:27 | 43.78019 | 28.62013 | 35110 ft | 513 kts | 117° |
| 2026-05-06 20:28 | 43.74393 | 28.70537 | 35111 ft | 513 kts | 117° |
| 2026-05-06 20:28 | 43.70756 | 28.79042 | 35115 ft | 513 kts | 118° |
| 2026-05-06 20:29 | 43.66721 | 28.87152 | 35112 ft | 514 kts | 123° |
| 2026-05-06 20:29 | 43.62531 | 28.95174 | 35114 ft | 514 kts | 123° |
| 2026-05-06 20:30 | 43.56245 | 29.07095 | 35118 ft | 513 kts | 123° |
| 2026-05-06 20:31 | 43.52042 | 29.15063 | 35117 ft | 512 kts | 124° |
| 2026-05-06 20:31 | 43.47846 | 29.23005 | 35120 ft | 512 kts | 124° |
| 2026-05-06 20:32 | 43.43657 | 29.30914 | 35120 ft | 511 kts | 124° |
| 2026-05-06 20:32 | 43.39488 | 29.38766 | 35118 ft | 510 kts | 124° |
| 2026-05-06 20:33 | 43.35298 | 29.46632 | 35120 ft | 509 kts | 124° |
| 2026-05-06 20:33 | 43.31102 | 29.54490 | 35123 ft | 509 kts | 124° |
| 2026-05-06 20:34 | 43.26909 | 29.62323 | 35120 ft | 509 kts | 124° |
| 2026-05-06 20:34 | 43.22723 | 29.70121 | 35120 ft | 508 kts | 124° |
| 2026-05-06 20:35 | 43.18553 | 29.77868 | 35121 ft | 508 kts | 124° |
| 2026-05-06 20:35 | 43.14350 | 29.85655 | 35122 ft | 508 kts | 124° |
| 2026-05-06 20:36 | 43.10143 | 29.93432 | 35122 ft | 508 kts | 124° |
| 2026-05-06 20:36 | 43.05927 | 30.01203 | 35119 ft | 508 kts | 124° |
| 2026-05-06 20:37 | 43.01724 | 30.08931 | 35120 ft | 508 kts | 124° |
| 2026-05-06 20:37 | 42.97493 | 30.16689 | 35123 ft | 509 kts | 124° |
| 2026-05-06 20:38 | 42.93259 | 30.24433 | 35122 ft | 509 kts | 124° |
| 2026-05-06 20:38 | 42.89007 | 30.32190 | 35122 ft | 509 kts | 124° |
| 2026-05-06 20:39 | 42.84778 | 30.39885 | 35119 ft | 509 kts | 124° |
| 2026-05-06 20:39 | 42.80504 | 30.47639 | 35120 ft | 509 kts | 124° |
| 2026-05-06 20:40 | 42.76349 | 30.55392 | 35121 ft | 507 kts | 118° |
| 2026-05-06 20:40 | 42.73591 | 30.64056 | 35119 ft | 498 kts | 100° |
| 2026-05-06 20:41 | 42.72408 | 30.73315 | 35119 ft | 494 kts | 94° |
| 2026-05-06 20:41 | 42.71504 | 30.82582 | 35115 ft | 493 kts | 94° |
| 2026-05-06 20:42 | 42.70607 | 30.91826 | 35112 ft | 493 kts | 94° |
| 2026-05-06 20:42 | 42.69669 | 31.01067 | 35120 ft | 493 kts | 94° |
| 2026-05-06 20:43 | 42.68713 | 31.10237 | 35117 ft | 493 kts | 94° |
| 2026-05-06 20:43 | 42.67740 | 31.19472 | 35115 ft | 493 kts | 95° |
| 2026-05-06 20:44 | 42.66762 | 31.28700 | 35116 ft | 492 kts | 95° |
| 2026-05-06 20:44 | 42.65780 | 31.37897 | 35116 ft | 492 kts | 95° |
| 2026-05-06 20:45 | 42.64789 | 31.47111 | 35117 ft | 492 kts | 95° |
| 2026-05-06 20:45 | 42.63790 | 31.56323 | 35118 ft | 492 kts | 95° |
| 2026-05-06 20:46 | 42.62791 | 31.65473 | 35118 ft | 493 kts | 95° |
| 2026-05-06 20:46 | 42.61777 | 31.74683 | 35116 ft | 493 kts | 95° |
| 2026-05-06 20:47 | 42.60760 | 31.83852 | 35117 ft | 493 kts | 95° |
| 2026-05-06 20:47 | 42.59731 | 31.93060 | 35118 ft | 493 kts | 95° |
| 2026-05-06 20:48 | 42.58693 | 32.02277 | 35117 ft | 493 kts | 95° |
| 2026-05-06 20:48 | 42.57680 | 32.11439 | 35120 ft | 493 kts | 95° |
| 2026-05-06 20:49 | 42.56627 | 32.20654 | 35115 ft | 493 kts | 95° |
| 2026-05-06 20:49 | 42.55567 | 32.29801 | 35118 ft | 493 kts | 95° |
| 2026-05-06 20:50 | 42.54496 | 32.39012 | 35117 ft | 493 kts | 95° |
| 2026-05-06 20:50 | 42.53423 | 32.48197 | 35118 ft | 494 kts | 95° |
| 2026-05-06 20:51 | 42.52342 | 32.57397 | 35116 ft | 494 kts | 95° |
| 2026-05-06 20:51 | 42.51252 | 32.66603 | 35116 ft | 494 kts | 95° |
| 2026-05-06 20:52 | 42.50162 | 32.75739 | 35115 ft | 494 kts | 95° |
| 2026-05-06 20:52 | 42.49055 | 32.84950 | 35119 ft | 495 kts | 95° |
| 2026-05-06 20:53 | 42.47939 | 32.94168 | 35118 ft | 495 kts | 95° |
| 2026-05-06 20:53 | 42.46820 | 33.03355 | 35119 ft | 495 kts | 96° |
| 2026-05-06 20:54 | 42.45693 | 33.12551 | 35109 ft | 495 kts | 96° |
| 2026-05-06 20:54 | 42.44565 | 33.21719 | 35121 ft | 495 kts | 96° |
| 2026-05-06 20:55 | 42.43415 | 33.30931 | 35122 ft | 496 kts | 96° |
| 2026-05-06 20:55 | 42.42258 | 33.40141 | 35126 ft | 496 kts | 96° |
| 2026-05-06 20:56 | 42.41104 | 33.49313 | 35123 ft | 496 kts | 96° |
| 2026-05-06 20:56 | 42.39935 | 33.58511 | 35117 ft | 496 kts | 97° |
| 2026-05-06 20:57 | 42.38757 | 33.67721 | 35126 ft | 495 kts | 97° |
| 2026-05-06 20:57 | 42.37582 | 33.76854 | 35121 ft | 495 kts | 97° |
| 2026-05-06 20:58 | 42.36393 | 33.86037 | 35124 ft | 495 kts | 97° |
| 2026-05-06 20:58 | 42.35199 | 33.95222 | 35125 ft | 495 kts | 97° |
| 2026-05-06 20:59 | 42.34000 | 34.04398 | 35124 ft | 495 kts | 97° |
| 2026-05-06 20:59 | 42.32798 | 34.13540 | 35128 ft | 495 kts | 97° |
| 2026-05-06 21:00 | 42.31584 | 34.22708 | 35129 ft | 495 kts | 98° |
| 2026-05-06 21:00 | 42.30369 | 34.31830 | 35127 ft | 495 kts | 98° |
| 2026-05-06 21:01 | 42.29139 | 34.41009 | 35127 ft | 495 kts | 98° |
| 2026-05-06 21:01 | 42.27917 | 34.50093 | 35128 ft | 494 kts | 98° |
| 2026-05-06 21:02 | 42.26670 | 34.59238 | 35125 ft | 494 kts | 98° |
| 2026-05-06 21:02 | 42.25415 | 34.68396 | 35133 ft | 494 kts | 98° |
| 2026-05-06 21:03 | 42.24167 | 34.77458 | 35137 ft | 494 kts | 98° |
| 2026-05-06 21:03 | 42.22904 | 34.86588 | 35130 ft | 494 kts | 98° |
| 2026-05-06 21:04 | 42.21634 | 34.95671 | 35134 ft | 494 kts | 98° |
| 2026-05-06 21:04 | 42.20353 | 35.04779 | 35135 ft | 494 kts | 98° |
| 2026-05-06 21:05 | 42.19279 | 35.12371 | 35138 ft | 494 kts | 99° |
| 2026-05-06 21:05 | 42.17776 | 35.22948 | 35139 ft | 494 kts | 99° |
| 2026-05-06 21:06 | 42.16473 | 35.32052 | 35139 ft | 494 kts | 99° |
| 2026-05-06 21:06 | 42.15162 | 35.41163 | 35140 ft | 494 kts | 99° |
| 2026-05-06 21:07 | 42.14074 | 35.48726 | 35139 ft | 494 kts | 99° |
| 2026-05-06 21:07 | 42.12753 | 35.57821 | 35142 ft | 495 kts | 99° |
| 2026-05-06 21:08 | 42.11430 | 35.66873 | 35140 ft | 495 kts | 99° |
| 2026-05-06 21:08 | 42.10093 | 35.75978 | 35144 ft | 495 kts | 99° |
| 2026-05-06 21:09 | 42.08747 | 35.85094 | 35147 ft | 495 kts | 99° |
| 2026-05-06 21:09 | 42.07404 | 35.94139 | 35149 ft | 495 kts | 100° |
| 2026-05-06 21:10 | 42.06044 | 36.03242 | 35148 ft | 495 kts | 100° |
| 2026-05-06 21:10 | 42.04687 | 36.12277 | 35148 ft | 495 kts | 100° |
| 2026-05-06 21:11 | 42.03313 | 36.21376 | 35154 ft | 496 kts | 100° |
| 2026-05-06 21:11 | 42.02165 | 36.28938 | 35151 ft | 496 kts | 100° |
| 2026-05-06 21:12 | 42.00975 | 36.36735 | 35152 ft | 496 kts | 100° |
| 2026-05-06 21:12 | 41.99587 | 36.45786 | 35154 ft | 497 kts | 101° |
| 2026-05-06 21:13 | 41.98185 | 36.54879 | 35154 ft | 497 kts | 101° |
| 2026-05-06 21:13 | 41.96771 | 36.63995 | 35154 ft | 497 kts | 101° |
| 2026-05-06 21:14 | 41.95362 | 36.73037 | 35152 ft | 497 kts | 101° |
| 2026-05-06 21:14 | 41.93935 | 36.82135 | 35153 ft | 497 kts | 101° |
| 2026-05-06 21:15 | 41.92508 | 36.91191 | 35153 ft | 497 kts | 101° |
| 2026-05-06 21:15 | 41.91069 | 37.00269 | 35155 ft | 497 kts | 101° |
| 2026-05-06 21:16 | 41.90334 | 37.09482 | 35156 ft | 496 kts | 91° |
| 2026-05-06 21:16 | 41.90148 | 37.18750 | 35158 ft | 496 kts | 90° |
| 2026-05-06 21:17 | 41.90034 | 37.28028 | 35158 ft | 497 kts | 90° |
| 2026-05-06 21:17 | 41.89908 | 37.37234 | 35159 ft | 497 kts | 90° |
| 2026-05-06 21:18 | 41.89760 | 37.46527 | 35160 ft | 497 kts | 91° |
| 2026-05-06 21:18 | 41.89598 | 37.55822 | 35153 ft | 497 kts | 91° |
| 2026-05-06 21:19 | 41.89428 | 37.65102 | 35159 ft | 497 kts | 91° |
| 2026-05-06 21:19 | 41.89252 | 37.74353 | 35157 ft | 497 kts | 91° |
| 2026-05-06 21:20 | 41.89070 | 37.83571 | 35161 ft | 497 kts | 91° |
| 2026-05-06 21:20 | 41.88879 | 37.92850 | 35154 ft | 497 kts | 91° |
| 2026-05-06 21:21 | 41.88680 | 38.02136 | 35160 ft | 497 kts | 91° |
| 2026-05-06 21:21 | 41.88195 | 38.23454 | 35161 ft | 497 kts | 91° |
| 2026-05-06 21:22 | 41.87264 | 38.60334 | 35156 ft | 498 kts | 92° |
| 2026-05-06 21:22 | 41.86203 | 38.97597 | 35154 ft | 497 kts | 92° |
| 2026-05-06 21:23 | 41.85031 | 39.34568 | 35154 ft | 498 kts | 92° |
| 2026-05-06 21:23 | 41.83738 | 39.71762 | 35146 ft | 498 kts | 93° |
| 2026-05-06 21:24 | 41.82330 | 40.08666 | 35151 ft | 499 kts | 93° |
| 2026-05-06 21:24 | 41.80785 | 40.45952 | 35152 ft | 500 kts | 94° |
| 2026-05-06 21:25 | 41.79081 | 40.83238 | 35154 ft | 501 kts | 95° |
| 2026-05-06 21:25 | 41.77161 | 41.20572 | 35164 ft | 503 kts | 95° |
| 2026-05-06 21:26 | 41.75135 | 41.57898 | 35181 ft | 505 kts | 95° |
| 2026-05-06 21:26 | 41.72975 | 41.95421 | 35175 ft | 508 kts | 96° |
| 2026-05-06 21:27 | 41.70674 | 42.33248 | 35176 ft | 510 kts | 97° |
| 2026-05-06 21:27 | 41.68245 | 42.71088 | 35161 ft | 510 kts | 97° |
| 2026-05-06 21:28 | 41.64331 | 43.08641 | 35164 ft | 508 kts | 104° |
| 2026-05-06 21:28 | 41.59263 | 43.45760 | 35161 ft | 510 kts | 103° |
| 2026-05-06 21:29 | 41.54089 | 43.83222 | 35147 ft | 513 kts | 104° |
| 2026-05-06 21:29 | 41.48806 | 44.20537 | 35129 ft | 516 kts | 104° |
| 2026-05-06 21:30 | 41.43346 | 44.58172 | 35115 ft | 518 kts | 105° |
| 2026-05-06 21:30 | 41.37743 | 44.95883 | 35104 ft | 519 kts | 105° |
| 2026-05-06 21:31 | 41.29677 | 45.32514 | 35093 ft | 515 kts | 113° |
| 2026-05-06 21:31 | 41.20331 | 45.68428 | 35103 ft | 516 kts | 114° |
| 2026-05-06 21:32 | 41.10757 | 46.04624 | 35095 ft | 518 kts | 114° |
| 2026-05-06 21:32 | 40.96273 | 46.58713 | 35091 ft | 521 kts | 115° |
| 2026-05-06 21:33 | 40.88856 | 46.95836 | 35093 ft | 534 kts | 100° |
| 2026-05-06 21:33 | 40.86040 | 47.34751 | 35099 ft | 535 kts | 100° |
| 2026-05-06 21:34 | 40.83358 | 47.73987 | 35102 ft | 537 kts | 99° |
| 2026-05-06 21:34 | 40.80846 | 48.13531 | 35098 ft | 539 kts | 99° |
| 2026-05-06 21:35 | 40.78200 | 48.52751 | 35101 ft | 540 kts | 100° |
| 2026-05-06 21:35 | 40.75394 | 48.92330 | 35090 ft | 541 kts | 101° |
| 2026-05-06 21:36 | 40.70949 | 49.31296 | 35078 ft | 528 kts | 117° |
| 2026-05-06 21:36 | 40.60050 | 49.66960 | 35068 ft | 527 kts | 121° |
| 2026-05-06 21:37 | 40.48155 | 50.02493 | 35042 ft | 532 kts | 117° |
| 2026-05-06 21:37 | 40.44946 | 50.21828 | 35057 ft | 545 kts | 106° |
| 2026-05-06 21:37 | 40.42401 | 50.41250 | 35059 ft | 545 kts | 106° |
| 2026-05-06 21:38 | 40.37003 | 50.80517 | 35056 ft | 545 kts | 107° |
| 2026-05-06 21:38 | 40.31513 | 51.19417 | 35052 ft | 544 kts | 107° |
| 2026-05-06 21:39 | 40.25875 | 51.58436 | 35046 ft | 544 kts | 107° |
| 2026-05-06 21:39 | 40.20107 | 51.97291 | 35041 ft | 543 kts | 107° |
| 2026-05-06 21:40 | 40.14228 | 52.36014 | 35040 ft | 543 kts | 108° |
| 2026-05-06 21:40 | 40.08253 | 52.74460 | 35046 ft | 543 kts | 108° |
| 2026-05-06 21:41 | 40.07138 | 53.12293 | 35048 ft | 567 kts | 72° |
| 2026-05-06 21:41 | 40.18635 | 53.50915 | 35037 ft | 568 kts | 71° |
| 2026-05-06 21:42 | 40.29722 | 53.89455 | 35009 ft | 568 kts | 71° |
| 2026-05-06 21:42 | 40.40762 | 54.28371 | 35003 ft | 569 kts | 72° |
| 2026-05-06 21:43 | 40.51657 | 54.67362 | 34993 ft | 569 kts | 72° |
| 2026-05-06 21:43 | 40.59840 | 54.97045 | 34981 ft | 569 kts | 72° |
| 2026-05-06 21:44 | 40.62522 | 55.06851 | 34973 ft | 569 kts | 72° |
| 2026-05-06 21:44 | 40.65181 | 55.16609 | 34974 ft | 569 kts | 72° |
| 2026-05-06 21:45 | 40.67850 | 55.26442 | 34968 ft | 569 kts | 72° |
| 2026-05-06 21:45 | 40.70508 | 55.36276 | 34960 ft | 569 kts | 72° |
| 2026-05-06 21:46 | 40.73156 | 55.46108 | 34960 ft | 569 kts | 72° |
| 2026-05-06 21:46 | 40.75797 | 55.55957 | 34955 ft | 569 kts | 72° |
| 2026-05-06 21:47 | 40.78411 | 55.65741 | 34951 ft | 569 kts | 72° |
| 2026-05-06 21:47 | 40.81040 | 55.75620 | 34945 ft | 569 kts | 72° |
| 2026-05-06 21:48 | 40.83657 | 55.85495 | 34944 ft | 569 kts | 72° |
| 2026-05-06 21:48 | 40.86245 | 55.95298 | 34937 ft | 568 kts | 72° |
| 2026-05-06 21:49 | 40.88842 | 56.05176 | 34932 ft | 568 kts | 72° |
| 2026-05-06 21:49 | 40.91428 | 56.15050 | 34930 ft | 567 kts | 72° |
| 2026-05-06 21:50 | 40.93989 | 56.24871 | 34924 ft | 567 kts | 72° |
| 2026-05-06 21:50 | 40.96559 | 56.34766 | 34919 ft | 567 kts | 72° |
| 2026-05-06 21:51 | 40.99103 | 56.44598 | 34919 ft | 567 kts | 72° |
| 2026-05-06 21:51 | 41.01118 | 56.54650 | 34916 ft | 564 kts | 82° |
| 2026-05-06 21:52 | 41.02441 | 56.64912 | 34911 ft | 565 kts | 83° |
| 2026-05-06 21:52 | 41.03641 | 56.75203 | 34903 ft | 565 kts | 84° |
| 2026-05-06 21:53 | 41.04830 | 56.85497 | 34899 ft | 565 kts | 83° |
| 2026-05-06 21:53 | 41.05826 | 56.94061 | 34896 ft | 565 kts | 83° |
| 2026-05-06 21:54 | 41.07027 | 57.04382 | 34889 ft | 565 kts | 83° |
| 2026-05-06 21:54 | 41.08212 | 57.14633 | 34885 ft | 565 kts | 83° |
| 2026-05-06 21:55 | 41.09392 | 57.24930 | 34881 ft | 565 kts | 83° |
| 2026-05-06 21:55 | 41.10564 | 57.35250 | 34882 ft | 564 kts | 83° |
| 2026-05-06 21:56 | 41.11723 | 57.45546 | 34880 ft | 564 kts | 83° |
| 2026-05-06 21:56 | 41.12868 | 57.55789 | 34879 ft | 563 kts | 84° |
| 2026-05-06 21:57 | 41.14008 | 57.66087 | 34881 ft | 563 kts | 84° |
| 2026-05-06 21:57 | 41.15138 | 57.76372 | 34877 ft | 562 kts | 84° |
| 2026-05-06 21:58 | 41.16249 | 57.86578 | 34875 ft | 562 kts | 84° |
| 2026-05-06 21:58 | 41.17360 | 57.96858 | 34874 ft | 561 kts | 84° |
| 2026-05-06 21:59 | 41.18458 | 58.07117 | 34874 ft | 560 kts | 84° |
| 2026-05-06 21:59 | 41.19545 | 58.17363 | 34875 ft | 560 kts | 84° |
| 2026-05-06 22:00 | 41.20617 | 58.27540 | 34875 ft | 559 kts | 84° |
| 2026-05-06 22:00 | 41.21686 | 58.37769 | 34874 ft | 559 kts | 84° |
| 2026-05-06 22:01 | 41.22746 | 58.48008 | 34869 ft | 558 kts | 84° |
| 2026-05-06 22:01 | 41.23796 | 58.58238 | 34869 ft | 558 kts | 84° |
| 2026-05-06 22:02 | 41.24830 | 58.68405 | 34870 ft | 559 kts | 84° |
| 2026-05-06 22:02 | 41.25862 | 58.78646 | 34868 ft | 559 kts | 84° |
| 2026-05-06 22:03 | 41.26885 | 58.88883 | 34866 ft | 558 kts | 84° |
| 2026-05-06 22:03 | 41.27899 | 58.99129 | 34862 ft | 558 kts | 84° |
| 2026-05-06 22:04 | 41.28902 | 59.09365 | 34858 ft | 558 kts | 84° |
| 2026-05-06 22:04 | 41.29896 | 59.19600 | 34862 ft | 558 kts | 84° |
| 2026-05-06 22:05 | 41.30874 | 59.29774 | 34858 ft | 557 kts | 84° |
| 2026-05-06 22:05 | 41.31849 | 59.40005 | 34846 ft | 557 kts | 84° |
| 2026-05-06 22:06 | 41.32815 | 59.50245 | 34839 ft | 557 kts | 84° |
| 2026-05-06 22:06 | 41.33770 | 59.60464 | 34844 ft | 556 kts | 84° |
| 2026-05-06 22:07 | 41.35306 | 59.70469 | 34838 ft | 555 kts | 73° |
| 2026-05-06 22:07 | 41.37601 | 59.80296 | 34832 ft | 554 kts | 72° |
| 2026-05-06 22:08 | 41.40002 | 59.90059 | 34824 ft | 553 kts | 71° |
| 2026-05-06 22:08 | 41.42378 | 59.99760 | 34826 ft | 552 kts | 72° |
| 2026-05-06 22:09 | 41.44733 | 60.09495 | 34824 ft | 551 kts | 72° |
| 2026-05-06 22:09 | 41.47069 | 60.19232 | 34825 ft | 550 kts | 72° |
| 2026-05-06 22:10 | 41.49384 | 60.28968 | 34821 ft | 550 kts | 72° |
| 2026-05-06 22:10 | 41.51649 | 60.38644 | 34820 ft | 549 kts | 72° |
| 2026-05-06 22:11 | 41.53919 | 60.48372 | 34815 ft | 548 kts | 72° |
| 2026-05-06 22:11 | 41.56181 | 60.58088 | 34816 ft | 547 kts | 72° |
| 2026-05-06 22:12 | 41.58440 | 60.67802 | 34818 ft | 546 kts | 72° |
| 2026-05-06 22:12 | 41.60898 | 60.77335 | 34816 ft | 545 kts | 70° |
| 2026-05-06 22:13 | 41.63474 | 60.86866 | 34818 ft | 545 kts | 70° |
| 2026-05-06 22:13 | 41.66011 | 60.96407 | 34821 ft | 544 kts | 70° |
| 2026-05-06 22:14 | 41.68509 | 61.05971 | 34821 ft | 543 kts | 70° |
| 2026-05-06 22:14 | 41.70980 | 61.15510 | 34822 ft | 542 kts | 70° |
| 2026-05-06 22:15 | 41.73424 | 61.24986 | 34819 ft | 541 kts | 70° |
| 2026-05-06 22:15 | 41.75876 | 61.34523 | 34822 ft | 541 kts | 70° |
| 2026-05-06 22:16 | 41.78321 | 61.44066 | 34820 ft | 541 kts | 71° |
| 2026-05-06 22:16 | 41.80758 | 61.53618 | 34822 ft | 541 kts | 71° |
| 2026-05-06 22:17 | 41.83175 | 61.63129 | 34823 ft | 541 kts | 71° |
| 2026-05-06 22:17 | 41.85598 | 61.72700 | 34825 ft | 541 kts | 71° |
| 2026-05-06 22:18 | 41.88001 | 61.82256 | 34824 ft | 541 kts | 71° |
| 2026-05-06 22:18 | 41.90396 | 61.91828 | 34821 ft | 541 kts | 71° |
| 2026-05-06 22:19 | 41.92772 | 62.01361 | 34832 ft | 541 kts | 71° |
| 2026-05-06 22:19 | 41.95153 | 62.10939 | 34828 ft | 540 kts | 71° |
| 2026-05-06 22:20 | 41.97532 | 62.20532 | 34830 ft | 540 kts | 71° |
| 2026-05-06 22:20 | 41.99882 | 62.30058 | 34830 ft | 540 kts | 71° |
| 2026-05-06 22:21 | 42.02236 | 62.39635 | 34833 ft | 539 kts | 71° |
| 2026-05-06 22:21 | 42.04582 | 62.49220 | 34838 ft | 538 kts | 71° |
| 2026-05-06 22:22 | 42.06925 | 62.58828 | 34833 ft | 538 kts | 71° |
| 2026-05-06 22:22 | 42.09232 | 62.68327 | 34835 ft | 537 kts | 71° |
| 2026-05-06 22:23 | 42.11548 | 62.77908 | 34833 ft | 536 kts | 71° |
| 2026-05-06 22:23 | 42.13851 | 62.87453 | 34838 ft | 536 kts | 71° |
| 2026-05-06 22:24 | 42.16146 | 62.97033 | 34840 ft | 535 kts | 71° |
| 2026-05-06 22:24 | 42.18412 | 63.06537 | 34839 ft | 535 kts | 71° |
| 2026-05-06 22:25 | 42.20689 | 63.16085 | 34846 ft | 534 kts | 71° |
| 2026-05-06 22:25 | 42.22958 | 63.25629 | 34851 ft | 533 kts | 71° |
| 2026-05-06 22:26 | 42.25215 | 63.35175 | 34856 ft | 532 kts | 71° |
| 2026-05-06 22:26 | 42.27445 | 63.44648 | 34864 ft | 532 kts | 71° |
| 2026-05-06 22:27 | 42.29674 | 63.54158 | 34872 ft | 531 kts | 71° |
| 2026-05-06 22:27 | 42.31897 | 63.63682 | 34882 ft | 530 kts | 71° |
| 2026-05-06 22:28 | 42.34095 | 63.73137 | 34883 ft | 530 kts | 71° |
| 2026-05-06 22:28 | 42.36299 | 63.82662 | 34890 ft | 530 kts | 71° |
| 2026-05-06 22:29 | 42.38494 | 63.92186 | 34890 ft | 530 kts | 71° |
| 2026-05-06 22:29 | 42.40680 | 64.01714 | 34901 ft | 530 kts | 71° |
| 2026-05-06 22:30 | 42.42825 | 64.11219 | 34892 ft | 530 kts | 71° |
| 2026-05-06 22:30 | 42.44966 | 64.20794 | 34894 ft | 531 kts | 71° |
| 2026-05-06 22:31 | 42.47098 | 64.30333 | 34889 ft | 531 kts | 71° |
| 2026-05-06 22:31 | 42.49254 | 64.39910 | 34892 ft | 531 kts | 71° |
| 2026-05-06 22:32 | 42.51402 | 64.49483 | 34896 ft | 530 kts | 71° |
| 2026-05-06 22:32 | 42.53529 | 64.59022 | 34893 ft | 530 kts | 71° |
| 2026-05-06 22:33 | 42.55660 | 64.68611 | 34898 ft | 531 kts | 72° |
| 2026-05-06 22:33 | 42.57778 | 64.78209 | 34899 ft | 531 kts | 72° |
| 2026-05-06 22:34 | 42.59890 | 64.87833 | 34900 ft | 531 kts | 72° |
| 2026-05-06 22:34 | 42.61995 | 64.97461 | 34897 ft | 531 kts | 72° |
| 2026-05-06 22:35 | 42.64078 | 65.07027 | 34896 ft | 531 kts | 72° |
| 2026-05-06 22:35 | 42.66165 | 65.16649 | 34895 ft | 531 kts | 72° |
| 2026-05-06 22:36 | 42.68246 | 65.26291 | 34893 ft | 530 kts | 72° |
| 2026-05-06 22:36 | 42.70315 | 65.35922 | 34897 ft | 530 kts | 72° |
| 2026-05-06 22:37 | 42.72367 | 65.45514 | 34903 ft | 530 kts | 73° |
| 2026-05-06 22:37 | 42.74422 | 65.55165 | 34901 ft | 530 kts | 73° |
| 2026-05-06 22:38 | 42.76465 | 65.64807 | 34901 ft | 530 kts | 73° |
| 2026-05-06 22:38 | 42.78499 | 65.74449 | 34902 ft | 530 kts | 73° |
| 2026-05-06 22:39 | 42.80522 | 65.84064 | 34901 ft | 530 kts | 73° |
| 2026-05-06 22:39 | 42.82536 | 65.93707 | 34909 ft | 529 kts | 73° |
| 2026-05-06 22:40 | 42.84541 | 66.03359 | 34903 ft | 529 kts | 73° |
| 2026-05-06 22:40 | 42.86203 | 66.11384 | 34913 ft | 529 kts | 73° |
| 2026-05-06 22:41 | 42.89173 | 66.25863 | 34908 ft | 527 kts | 73° |
| 2026-05-06 22:42 | 42.91453 | 66.37073 | 34902 ft | 527 kts | 74° |
| 2026-05-06 22:42 | 42.93074 | 66.45074 | 34914 ft | 526 kts | 74° |
| 2026-05-06 22:43 | 42.95018 | 66.54703 | 34915 ft | 525 kts | 74° |
| 2026-05-06 22:43 | 42.96955 | 66.64343 | 34915 ft | 524 kts | 74° |
| 2026-05-06 22:44 | 42.98874 | 66.73944 | 34913 ft | 524 kts | 74° |
| 2026-05-06 22:44 | 43.00773 | 66.83478 | 34922 ft | 523 kts | 74° |
| 2026-05-06 22:45 | 43.02672 | 66.93079 | 34920 ft | 523 kts | 74° |
| 2026-05-06 22:45 | 43.04561 | 67.02677 | 34914 ft | 522 kts | 74° |
| 2026-05-06 22:46 | 43.06439 | 67.12263 | 34926 ft | 522 kts | 74° |
| 2026-05-06 22:46 | 43.08302 | 67.21814 | 34920 ft | 522 kts | 74° |
| 2026-05-06 22:47 | 43.10169 | 67.31436 | 34924 ft | 521 kts | 75° |
| 2026-05-06 22:47 | 43.12014 | 67.40989 | 34927 ft | 521 kts | 75° |
| 2026-05-06 22:48 | 43.13857 | 67.50573 | 34932 ft | 520 kts | 75° |
| 2026-05-06 22:48 | 43.15694 | 67.60163 | 34927 ft | 520 kts | 75° |
| 2026-05-06 22:49 | 43.17520 | 67.69746 | 34925 ft | 519 kts | 75° |
| 2026-05-06 22:49 | 43.19328 | 67.79276 | 34929 ft | 519 kts | 75° |
| 2026-05-06 22:50 | 43.21137 | 67.88842 | 34936 ft | 518 kts | 75° |
| 2026-05-06 22:50 | 43.22929 | 67.98412 | 34932 ft | 518 kts | 75° |
| 2026-05-06 22:51 | 43.24710 | 68.07972 | 34936 ft | 517 kts | 75° |
| 2026-05-06 22:51 | 43.26486 | 68.17538 | 34936 ft | 517 kts | 75° |
| 2026-05-06 22:52 | 43.28256 | 68.27119 | 34941 ft | 517 kts | 76° |
| 2026-05-06 22:52 | 43.30017 | 68.36700 | 34939 ft | 517 kts | 76° |
| 2026-05-06 22:53 | 43.31433 | 68.46320 | 34941 ft | 517 kts | 81° |
| 2026-05-06 22:53 | 43.32475 | 68.56103 | 34938 ft | 517 kts | 82° |
| 2026-05-06 22:54 | 43.33416 | 68.65889 | 34936 ft | 517 kts | 84° |
| 2026-05-06 22:54 | 43.34173 | 68.75697 | 34945 ft | 516 kts | 84° |
| 2026-05-06 22:55 | 43.34948 | 68.85525 | 34954 ft | 516 kts | 84° |
| 2026-05-06 22:55 | 43.35757 | 68.95319 | 34961 ft | 515 kts | 84° |
| 2026-05-06 22:56 | 43.36570 | 69.05058 | 34967 ft | 515 kts | 84° |
| 2026-05-06 22:56 | 43.37379 | 69.14831 | 34967 ft | 514 kts | 84° |
| 2026-05-06 22:57 | 43.38192 | 69.24606 | 34964 ft | 514 kts | 84° |
| 2026-05-06 22:57 | 43.39046 | 69.34359 | 34968 ft | 514 kts | 83° |
| 2026-05-06 22:58 | 43.39891 | 69.44061 | 34971 ft | 514 kts | 84° |
| 2026-05-06 22:58 | 43.40723 | 69.53814 | 34972 ft | 514 kts | 84° |
| 2026-05-06 22:59 | 43.41545 | 69.63600 | 34971 ft | 514 kts | 84° |
| 2026-05-06 22:59 | 43.42356 | 69.73372 | 34973 ft | 514 kts | 84° |
| 2026-05-06 23:00 | 43.43171 | 69.83090 | 34969 ft | 514 kts | 84° |
| 2026-05-06 23:00 | 43.44012 | 69.92876 | 34969 ft | 515 kts | 84° |
| 2026-05-06 23:01 | 43.44846 | 70.02677 | 34964 ft | 515 kts | 84° |
| 2026-05-06 23:01 | 43.45662 | 70.12424 | 34962 ft | 515 kts | 84° |
| 2026-05-06 23:02 | 43.46471 | 70.22214 | 34958 ft | 514 kts | 84° |
| 2026-05-06 23:02 | 43.47273 | 70.32013 | 34958 ft | 514 kts | 84° |
| 2026-05-06 23:03 | 43.48062 | 70.41776 | 34953 ft | 515 kts | 84° |
| 2026-05-06 23:03 | 43.48846 | 70.51576 | 34953 ft | 515 kts | 84° |
| 2026-05-06 23:04 | 43.49623 | 70.61387 | 34953 ft | 515 kts | 84° |
| 2026-05-06 23:04 | 43.50393 | 70.71230 | 34950 ft | 516 kts | 84° |
| 2026-05-06 23:05 | 43.51151 | 70.81014 | 34953 ft | 515 kts | 84° |
| 2026-05-06 23:05 | 43.51902 | 70.90834 | 34955 ft | 514 kts | 84° |
| 2026-05-06 23:06 | 43.52631 | 71.00613 | 34958 ft | 513 kts | 84° |
| 2026-05-06 23:06 | 43.53344 | 71.10333 | 34958 ft | 511 kts | 84° |
| 2026-05-06 23:07 | 43.54054 | 71.20104 | 34962 ft | 511 kts | 84° |
| 2026-05-06 23:07 | 43.54755 | 71.29853 | 34959 ft | 510 kts | 84° |
| 2026-05-06 23:08 | 43.55443 | 71.39538 | 34960 ft | 510 kts | 84° |
| 2026-05-06 23:08 | 43.56127 | 71.49272 | 34959 ft | 509 kts | 84° |
| 2026-05-06 23:08 | 43.56464 | 71.54139 | 35122 ft | 509 kts | 83° |
| 2026-05-06 23:09 | 43.56797 | 71.59001 | 34968 ft | 507 kts | 83° |
| 2026-05-06 23:09 | 43.57463 | 71.68685 | 34964 ft | 506 kts | 83° |
| 2026-05-06 23:10 | 43.58115 | 71.78287 | 34964 ft | 506 kts | 84° |
| 2026-05-06 23:10 | 43.58763 | 71.87971 | 34966 ft | 506 kts | 84° |
| 2026-05-06 23:11 | 43.59400 | 71.97630 | 34964 ft | 505 kts | 84° |
| 2026-05-06 23:11 | 43.60025 | 72.07239 | 34969 ft | 505 kts | 84° |
| 2026-05-06 23:12 | 43.60644 | 72.16884 | 34964 ft | 504 kts | 84° |
| 2026-05-06 23:12 | 43.61256 | 72.26536 | 34967 ft | 504 kts | 84° |
| 2026-05-06 23:13 | 43.61859 | 72.36188 | 34964 ft | 504 kts | 84° |
| 2026-05-06 23:13 | 43.62454 | 72.45840 | 34966 ft | 504 kts | 85° |
| 2026-05-06 23:14 | 43.63037 | 72.55427 | 34966 ft | 504 kts | 85° |
| 2026-05-06 23:14 | 43.63615 | 72.65075 | 34971 ft | 504 kts | 85° |
| 2026-05-06 23:15 | 43.64185 | 72.74723 | 34971 ft | 504 kts | 85° |
| 2026-05-06 23:15 | 43.64748 | 72.84372 | 34975 ft | 504 kts | 85° |
| 2026-05-06 23:16 | 43.65298 | 72.93963 | 34970 ft | 503 kts | 85° |
| 2026-05-06 23:16 | 43.65843 | 73.03603 | 34974 ft | 503 kts | 85° |
| 2026-05-06 23:17 | 43.66381 | 73.13257 | 34974 ft | 503 kts | 85° |
| 2026-05-06 23:17 | 43.66910 | 73.22913 | 34976 ft | 503 kts | 85° |
| 2026-05-06 23:18 | 43.67427 | 73.32485 | 34976 ft | 502 kts | 85° |
| 2026-05-06 23:18 | 43.67940 | 73.42129 | 34981 ft | 502 kts | 85° |
| 2026-05-06 23:19 | 43.68443 | 73.51749 | 34978 ft | 502 kts | 85° |
| 2026-05-06 23:19 | 43.68939 | 73.61380 | 34984 ft | 501 kts | 85° |
| 2026-05-06 23:20 | 43.69423 | 73.70941 | 34984 ft | 501 kts | 85° |
| 2026-05-06 23:20 | 43.69461 | 73.80580 | 34987 ft | 502 kts | 91° |
| 2026-05-06 23:21 | 43.69218 | 73.90224 | 34985 ft | 502 kts | 91° |
| 2026-05-06 23:21 | 43.68925 | 73.99874 | 34991 ft | 502 kts | 91° |
| 2026-05-06 23:22 | 43.68631 | 74.09443 | 34986 ft | 502 kts | 91° |
| 2026-05-06 23:22 | 43.68334 | 74.19103 | 34997 ft | 502 kts | 91° |
| 2026-05-06 23:23 | 43.68042 | 74.28750 | 34999 ft | 502 kts | 91° |
| 2026-05-06 23:23 | 43.67748 | 74.38321 | 35012 ft | 502 kts | 91° |
| 2026-05-06 23:24 | 43.67444 | 74.47945 | 35016 ft | 502 kts | 91° |
| 2026-05-06 23:24 | 43.67131 | 74.57592 | 35024 ft | 502 kts | 91° |
| 2026-05-06 23:25 | 43.66810 | 74.67218 | 35022 ft | 502 kts | 91° |
| 2026-05-06 23:25 | 43.66480 | 74.76861 | 35031 ft | 502 kts | 91° |
| 2026-05-06 23:26 | 43.66145 | 74.86426 | 35029 ft | 502 kts | 91° |
| 2026-05-06 23:26 | 43.65799 | 74.96060 | 35035 ft | 502 kts | 91° |
| 2026-05-06 23:27 | 43.65445 | 75.05689 | 35028 ft | 501 kts | 91° |
| 2026-05-06 23:27 | 43.65076 | 75.15323 | 35028 ft | 502 kts | 89° |
| 2026-05-06 23:28 | 43.64708 | 75.24965 | 35029 ft | 502 kts | 89° |
| 2026-05-06 23:28 | 43.64397 | 75.32979 | 35029 ft | 501 kts | 89° |
| 2026-05-06 23:29 | 43.64014 | 75.42585 | 35031 ft | 501 kts | 89° |
| 2026-05-06 23:29 | 43.63624 | 75.52154 | 35021 ft | 501 kts | 89° |
| 2026-05-06 23:30 | 43.63225 | 75.61743 | 35025 ft | 500 kts | 89° |
| 2026-05-06 23:30 | 43.62815 | 75.71318 | 35022 ft | 499 kts | 89° |
| 2026-05-06 23:31 | 43.62399 | 75.80826 | 35024 ft | 498 kts | 89° |
| 2026-05-06 23:31 | 43.61974 | 75.90396 | 35021 ft | 497 kts | 89° |
| 2026-05-06 23:32 | 43.61546 | 75.99869 | 35022 ft | 497 kts | 90° |
| 2026-05-06 23:32 | 43.61107 | 76.09389 | 35018 ft | 496 kts | 90° |
| 2026-05-06 23:33 | 43.60661 | 76.18900 | 35019 ft | 495 kts | 90° |
| 2026-05-06 23:33 | 43.60209 | 76.28375 | 35017 ft | 494 kts | 90° |
| 2026-05-06 23:34 | 43.59826 | 76.37770 | 35021 ft | 492 kts | 87° |
| 2026-05-06 23:34 | 43.59818 | 76.47202 | 35018 ft | 491 kts | 85° |
| 2026-05-06 23:35 | 43.59869 | 76.56623 | 35015 ft | 490 kts | 85° |
| 2026-05-06 23:35 | 43.59857 | 76.66035 | 35006 ft | 490 kts | 86° |
| 2026-05-06 23:36 | 43.59802 | 76.75400 | 35007 ft | 490 kts | 86° |
| 2026-05-06 23:36 | 43.59727 | 76.84812 | 35015 ft | 490 kts | 86° |
| 2026-05-06 23:37 | 43.59637 | 76.94220 | 35017 ft | 490 kts | 86° |
| 2026-05-06 23:37 | 43.59545 | 77.03636 | 35009 ft | 490 kts | 86° |
| 2026-05-06 23:38 | 43.59452 | 77.12986 | 35015 ft | 490 kts | 86° |
| 2026-05-06 23:38 | 43.59295 | 77.22409 | 35016 ft | 491 kts | 88° |
| 2026-05-06 23:39 | 43.58952 | 77.31762 | 35011 ft | 491 kts | 89° |
| 2026-05-06 23:39 | 43.58584 | 77.41172 | 35008 ft | 491 kts | 89° |
| 2026-05-06 23:40 | 43.58236 | 77.50589 | 35010 ft | 491 kts | 89° |
| 2026-05-06 23:40 | 43.58024 | 77.60002 | 35016 ft | 490 kts | 87° |
| 2026-05-06 23:41 | 43.57954 | 77.69408 | 35017 ft | 490 kts | 87° |
| 2026-05-06 23:41 | 43.57865 | 77.78837 | 35016 ft | 491 kts | 87° |
| 2026-05-06 23:42 | 43.57741 | 77.88200 | 35020 ft | 491 kts | 88° |
| 2026-05-06 23:42 | 43.57596 | 77.97652 | 35023 ft | 492 kts | 88° |
| 2026-05-06 23:43 | 43.57443 | 78.07080 | 35029 ft | 492 kts | 88° |
| 2026-05-06 23:43 | 43.57282 | 78.16468 | 35033 ft | 492 kts | 88° |
| 2026-05-06 23:44 | 43.57119 | 78.25925 | 35034 ft | 493 kts | 88° |
| 2026-05-06 23:44 | 43.56948 | 78.35391 | 35039 ft | 493 kts | 88° |
| 2026-05-06 23:45 | 43.56768 | 78.44860 | 35044 ft | 493 kts | 89° |
| 2026-05-06 23:45 | 43.56579 | 78.54296 | 35047 ft | 494 kts | 89° |
| 2026-05-06 23:46 | 43.56383 | 78.63772 | 35054 ft | 495 kts | 89° |
| 2026-05-06 23:46 | 43.56179 | 78.73272 | 35059 ft | 495 kts | 89° |
| 2026-05-06 23:47 | 43.55966 | 78.82761 | 35064 ft | 495 kts | 90° |
| 2026-05-06 23:47 | 43.55747 | 78.92204 | 35065 ft | 496 kts | 90° |
| 2026-05-06 23:48 | 43.55517 | 79.01737 | 35067 ft | 496 kts | 90° |
| 2026-05-06 23:48 | 43.55282 | 79.11192 | 35067 ft | 497 kts | 90° |
| 2026-05-06 23:49 | 43.55037 | 79.20716 | 35069 ft | 497 kts | 90° |
| 2026-05-06 23:49 | 43.54786 | 79.30261 | 35070 ft | 497 kts | 91° |
| 2026-05-06 23:50 | 43.54525 | 79.39783 | 35069 ft | 497 kts | 91° |
| 2026-05-06 23:50 | 43.54117 | 79.54046 | 35077 ft | 498 kts | 91° |
| 2026-05-06 23:51 | 43.53835 | 79.63597 | 35078 ft | 498 kts | 91° |
| 2026-05-06 23:51 | 43.53546 | 79.73132 | 35079 ft | 498 kts | 91° |
| 2026-05-06 23:52 | 43.53251 | 79.82635 | 35090 ft | 498 kts | 91° |
| 2026-05-06 23:52 | 43.52950 | 79.92165 | 35092 ft | 498 kts | 92° |
| 2026-05-06 23:53 | 43.52634 | 80.01730 | 35094 ft | 499 kts | 92° |
| 2026-05-06 23:53 | 43.52311 | 80.11295 | 35099 ft | 499 kts | 92° |
| 2026-05-06 23:54 | 43.51984 | 80.20796 | 35103 ft | 500 kts | 92° |
| 2026-05-06 23:54 | 43.51645 | 80.30396 | 35105 ft | 500 kts | 92° |
| 2026-05-06 23:55 | 43.51299 | 80.39976 | 35110 ft | 501 kts | 92° |
| 2026-05-06 23:55 | 43.50945 | 80.49571 | 35116 ft | 501 kts | 92° |
| 2026-05-06 23:56 | 43.50584 | 80.59102 | 35121 ft | 501 kts | 92° |
| 2026-05-06 23:56 | 43.50214 | 80.68684 | 35122 ft | 501 kts | 92° |
| 2026-05-06 23:57 | 43.49859 | 80.78831 | 35122 ft | 501 kts | 90° |
| 2026-05-06 23:57 | 43.49630 | 80.98016 | 35126 ft | 499 kts | 90° |
| 2026-05-06 23:58 | 43.49324 | 81.17013 | 35131 ft | 498 kts | 90° |
| 2026-05-06 23:58 | 43.48957 | 81.36114 | 35136 ft | 497 kts | 90° |
| 2026-05-06 23:59 | 43.48521 | 81.57106 | 35134 ft | 497 kts | 90° |
| 2026-05-06 23:59 | 43.47631 | 81.95171 | 35142 ft | 496 kts | 90° |
| 2026-05-07 00:00 | 43.46618 | 82.33104 | 35158 ft | 494 kts | 90° |
| 2026-05-07 00:00 | 43.45685 | 82.64532 | 35165 ft | 493 kts | 90° |
| 2026-05-07 00:01 | 43.44229 | 83.08631 | 35157 ft | 492 kts | 91° |
| 2026-05-07 00:01 | 43.42684 | 83.45980 | 35170 ft | 492 kts | 95° |
| 2026-05-07 00:02 | 43.39306 | 83.83411 | 35200 ft | 492 kts | 95° |
| 2026-05-07 00:02 | 43.36013 | 84.20754 | 35227 ft | 491 kts | 96° |
| 2026-05-07 00:03 | 43.32553 | 84.58017 | 35252 ft | 490 kts | 96° |
| 2026-05-07 00:03 | 43.28951 | 84.94958 | 35276 ft | 490 kts | 97° |
| 2026-05-07 00:04 | 43.25216 | 85.32046 | 35287 ft | 490 kts | 97° |
| 2026-05-07 00:04 | 43.21382 | 85.68904 | 35298 ft | 490 kts | 97° |
| 2026-05-07 00:05 | 43.22167 | 86.05217 | 35294 ft | 484 kts | 58° |
| 2026-05-07 00:05 | 43.32426 | 86.26599 | 35266 ft | 485 kts | 55° |
| 2026-05-07 00:06 | 43.47445 | 86.57393 | 35199 ft | 485 kts | 55° |
| 2026-05-07 00:06 | 43.62309 | 86.88375 | 35138 ft | 485 kts | 56° |
| 2026-05-07 00:07 | 43.77026 | 87.19744 | 35107 ft | 486 kts | 56° |
| 2026-05-07 00:07 | 43.91606 | 87.51137 | 35800 ft | 481 kts | 56° |
| 2026-05-07 00:08 | 43.99609 | 87.65934 | 36749 ft | 477 kts | 50° |
| 2026-05-07 00:08 | 44.07772 | 87.80639 | 37091 ft | 483 kts | 52° |
| 2026-05-07 00:08 | 44.19729 | 88.13638 | 37094 ft | 487 kts | 77° |
| 2026-05-07 00:09 | 44.25119 | 88.50768 | 37097 ft | 488 kts | 77° |
| 2026-05-07 00:09 | 44.30447 | 88.87704 | 37099 ft | 488 kts | 77° |
| 2026-05-07 00:10 | 44.35689 | 89.24973 | 37108 ft | 489 kts | 78° |
| 2026-05-07 00:10 | 44.40781 | 89.62202 | 37112 ft | 490 kts | 80° |
| 2026-05-07 00:11 | 44.39272 | 89.81278 | 37124 ft | 493 kts | 105° |
| 2026-05-07 00:11 | 44.35248 | 89.99452 | 37127 ft | 494 kts | 106° |
| 2026-05-07 00:11 | 44.27130 | 90.36215 | 37138 ft | 494 kts | 106° |
| 2026-05-07 00:12 | 44.18965 | 90.72668 | 37149 ft | 494 kts | 107° |
| 2026-05-07 00:12 | 44.10652 | 91.09205 | 37157 ft | 494 kts | 107° |
| 2026-05-07 00:13 | 44.02209 | 91.45666 | 37155 ft | 495 kts | 107° |
| 2026-05-07 00:13 | 43.93630 | 91.81727 | 37163 ft | 495 kts | 108° |
| 2026-05-07 00:14 | 43.84856 | 92.18074 | 37171 ft | 496 kts | 108° |
| 2026-05-07 00:14 | 43.76025 | 92.54079 | 37188 ft | 496 kts | 108° |
| 2026-05-07 00:15 | 43.68542 | 92.84156 | 37202 ft | 495 kts | 109° |
| 2026-05-07 00:15 | 43.58319 | 93.26131 | 37214 ft | 495 kts | 108° |
| 2026-05-07 00:16 | 43.50997 | 93.56346 | 37214 ft | 496 kts | 108° |
| 2026-05-07 00:16 | 43.42186 | 93.92174 | 37215 ft | 498 kts | 108° |
| 2026-05-07 00:17 | 43.33176 | 94.28233 | 37211 ft | 499 kts | 109° |
| 2026-05-07 00:17 | 43.22525 | 94.70167 | 37175 ft | 499 kts | 109° |
| 2026-05-07 00:18 | 43.14820 | 94.99960 | 37150 ft | 500 kts | 111° |
| 2026-05-07 00:18 | 43.06322 | 95.14596 | 37144 ft | 496 kts | 145° |
| 2026-05-07 00:18 | 42.94874 | 95.25216 | 37149 ft | 497 kts | 147° |
| 2026-05-07 00:19 | 42.72008 | 95.46288 | 37167 ft | 497 kts | 147° |
| 2026-05-07 00:19 | 42.49055 | 95.67323 | 37178 ft | 497 kts | 147° |
| 2026-05-07 00:20 | 42.26087 | 95.88436 | 37179 ft | 498 kts | 147° |
| 2026-05-07 00:20 | 42.03266 | 96.09454 | 37194 ft | 500 kts | 148° |
| 2026-05-07 00:21 | 41.92330 | 96.20998 | 37192 ft | 506 kts | 130° |
| 2026-05-07 00:21 | 41.87727 | 96.38700 | 37197 ft | 515 kts | 88° |
| 2026-05-07 00:21 | 41.89424 | 96.77282 | 37194 ft | 517 kts | 86° |
| 2026-05-07 00:22 | 41.90930 | 97.15717 | 37191 ft | 518 kts | 87° |
| 2026-05-07 00:22 | 41.92328 | 97.54566 | 37200 ft | 519 kts | 87° |
| 2026-05-07 00:23 | 41.93584 | 97.93070 | 37202 ft | 519 kts | 87° |
| 2026-05-07 00:23 | 41.94721 | 98.31930 | 37177 ft | 519 kts | 88° |
| 2026-05-07 00:24 | 41.95725 | 98.70752 | 37183 ft | 519 kts | 88° |
| 2026-05-07 00:24 | 41.96600 | 99.09652 | 37178 ft | 520 kts | 88° |
| 2026-05-07 00:25 | 41.97339 | 99.48294 | 37169 ft | 520 kts | 88° |
| 2026-05-07 00:25 | 41.97951 | 99.87175 | 37169 ft | 521 kts | 88° |
| 2026-05-07 00:26 | 41.98435 | 100.26259 | 37173 ft | 522 kts | 89° |
| 2026-05-07 00:26 | 41.98784 | 100.65133 | 37178 ft | 523 kts | 89° |
| 2026-05-07 00:27 | 41.98770 | 101.03393 | 37185 ft | 525 kts | 97° |
| 2026-05-07 00:27 | 41.94466 | 101.22050 | 37189 ft | 525 kts | 111° |
| 2026-05-07 00:27 | 41.89321 | 101.40546 | 37191 ft | 526 kts | 111° |
| 2026-05-07 00:28 | 41.79151 | 101.77346 | 37198 ft | 529 kts | 111° |
| 2026-05-07 00:28 | 41.68754 | 102.14419 | 37206 ft | 531 kts | 111° |
| 2026-05-07 00:29 | 41.58217 | 102.51452 | 37211 ft | 534 kts | 111° |
| 2026-05-07 00:30 | 41.37722 | 103.26053 | 37219 ft | 539 kts | 111° |
| 2026-05-07 00:30 | 41.27211 | 103.63413 | 37232 ft | 541 kts | 111° |
| 2026-05-07 00:31 | 41.16495 | 104.00980 | 37244 ft | 544 kts | 111° |
| 2026-05-07 00:31 | 41.05667 | 104.38391 | 37245 ft | 547 kts | 111° |
| 2026-05-07 00:32 | 40.94988 | 104.76360 | 37270 ft | 550 kts | 110° |
| 2026-05-07 00:32 | 40.84318 | 105.14272 | 37281 ft | 553 kts | 110° |
| 2026-05-07 00:33 | 40.73356 | 105.52634 | 37290 ft | 556 kts | 111° |
| 2026-05-07 00:33 | 40.62335 | 105.90638 | 37309 ft | 559 kts | 111° |
| 2026-05-07 00:34 | 40.51086 | 106.28870 | 37324 ft | 561 kts | 111° |
| 2026-05-07 00:34 | 40.39726 | 106.66921 | 37336 ft | 564 kts | 111° |
| 2026-05-07 00:35 | 40.31999 | 107.06141 | 37329 ft | 555 kts | 78° |
| 2026-05-07 00:35 | 40.36997 | 107.46091 | 37344 ft | 554 kts | 76° |
| 2026-05-07 00:36 | 40.41746 | 107.85869 | 37347 ft | 553 kts | 76° |
| 2026-05-07 00:36 | 40.46375 | 108.25869 | 37348 ft | 554 kts | 77° |
| 2026-05-07 00:37 | 40.50840 | 108.65739 | 37351 ft | 553 kts | 77° |
| 2026-05-07 00:37 | 40.55201 | 109.05960 | 37350 ft | 553 kts | 77° |
| 2026-05-07 00:38 | 40.59387 | 109.45893 | 37353 ft | 553 kts | 78° |
| 2026-05-07 00:38 | 40.63465 | 109.86166 | 37354 ft | 553 kts | 78° |
| 2026-05-07 00:39 | 40.64549 | 110.26515 | 37346 ft | 559 kts | 88° |
| 2026-05-07 00:39 | 40.64207 | 110.67687 | 37336 ft | 560 kts | 88° |
| 2026-05-07 00:40 | 40.63748 | 111.08578 | 37335 ft | 561 kts | 89° |
| 2026-05-07 00:40 | 40.63139 | 111.49767 | 37328 ft | 561 kts | 89° |
| 2026-05-07 00:41 | 40.62391 | 111.90686 | 37346 ft | 561 kts | 90° |
| 2026-05-07 00:41 | 40.61485 | 112.31906 | 37337 ft | 562 kts | 90° |
| 2026-05-07 00:42 | 40.59757 | 112.72868 | 37336 ft | 564 kts | 94° |
| 2026-05-07 00:42 | 40.56795 | 113.14162 | 37332 ft | 566 kts | 95° |
| 2026-05-07 00:43 | 40.53935 | 113.55237 | 37333 ft | 567 kts | 95° |
| 2026-05-07 00:43 | 40.50888 | 113.96724 | 37325 ft | 569 kts | 96° |
| 2026-05-07 00:44 | 40.49028 | 114.38378 | 37314 ft | 570 kts | 94° |
| 2026-05-07 00:44 | 40.47102 | 114.79771 | 37297 ft | 572 kts | 94° |
| 2026-05-07 00:45 | 40.45011 | 115.21592 | 37270 ft | 575 kts | 95° |
| 2026-05-07 00:45 | 40.42638 | 115.63378 | 37231 ft | 579 kts | 97° |
| 2026-05-07 00:46 | 40.39031 | 116.05649 | 37187 ft | 586 kts | 97° |
| 2026-05-07 00:46 | 40.35369 | 116.48303 | 37167 ft | 588 kts | 97° |
| 2026-05-07 00:47 | 40.31845 | 116.69002 | 37157 ft | 575 kts | 124° |
| 2026-05-07 00:47 | 40.20323 | 116.81433 | 37166 ft | 518 kts | 173° |
| 2026-05-07 00:47 | 40.06965 | 116.81435 | 37171 ft | 480 kts | 197° |
| 2026-05-07 00:47 | 39.93202 | 116.82684 | 37163 ft | 502 kts | 181° |
| 2026-05-07 00:48 | 39.65827 | 116.88372 | 37151 ft | 498 kts | 182° |
| 2026-05-07 00:48 | 39.38559 | 116.93990 | 37145 ft | 494 kts | 182° |
| 2026-05-07 00:49 | 39.12398 | 117.05832 | 37134 ft | 560 kts | 138° |
| 2026-05-07 00:49 | 39.07718 | 117.24988 | 37131 ft | 594 kts | 83° |
| 2026-05-07 00:49 | 39.07806 | 117.46281 | 37132 ft | 596 kts | 91° |
| 2026-05-07 00:50 | 39.07245 | 117.89138 | 37128 ft | 598 kts | 92° |
| 2026-05-07 00:50 | 39.05957 | 118.10390 | 37118 ft | 594 kts | 104° |
| 2026-05-07 00:50 | 39.02707 | 118.30931 | 37108 ft | 594 kts | 106° |
| 2026-05-07 00:51 | 38.95946 | 118.72565 | 37097 ft | 594 kts | 106° |
| 2026-05-07 00:51 | 38.89044 | 119.14202 | 37085 ft | 593 kts | 106° |
| 2026-05-07 00:52 | 38.82739 | 119.51433 | 37072 ft | 591 kts | 107° |
| 2026-05-07 00:52 | 38.75680 | 119.92588 | 37060 ft | 590 kts | 106° |
| 2026-05-07 00:53 | 38.71763 | 120.12605 | 37054 ft | 574 kts | 124° |
| 2026-05-07 00:53 | 38.60576 | 120.23985 | 37037 ft | 498 kts | 172° |
| 2026-05-07 00:53 | 38.50264 | 120.37166 | 37037 ft | 579 kts | 114° |
| 2026-05-07 00:53 | 38.51847 | 120.57332 | 37040 ft | 583 kts | 53° |
| 2026-05-07 00:54 | 38.64131 | 120.67677 | 37048 ft | 500 kts | 352° |
| 2026-05-07 00:54 | 38.74674 | 120.61427 | 37047 ft | 399 kts | 290° |
| 2026-05-07 00:54 | 38.77327 | 120.47956 | 37047 ft | 390 kts | 278° |
| 2026-05-07 00:54 | 38.77412 | 120.34515 | 37055 ft | 384 kts | 252° |
| 2026-05-07 00:55 | 38.69988 | 120.24409 | 37047 ft | 423 kts | 213° |
| 2026-05-07 00:55 | 38.57477 | 120.25314 | 37042 ft | 516 kts | 161° |
| 2026-05-07 00:55 | 38.49328 | 120.41494 | 37051 ft | 589 kts | 99° |
| 2026-05-07 00:55 | 38.54097 | 120.60678 | 37042 ft | 570 kts | 39° |
| 2026-05-07 00:56 | 38.67137 | 120.67054 | 37053 ft | 475 kts | 338° |
| 2026-05-07 00:56 | 38.80197 | 120.64992 | 37046 ft | 517 kts | 1° |
| 2026-05-07 00:56 | 38.92795 | 120.75649 | 37040 ft | 584 kts | 51° |
| 2026-05-07 00:56 | 38.96186 | 120.95856 | 37028 ft | 590 kts | 100° |
| 2026-05-07 00:57 | 38.89351 | 121.13554 | 37009 ft | 533 kts | 152° |
| 2026-05-07 00:57 | 38.76882 | 121.22396 | 37010 ft | 507 kts | 167° |
| 2026-05-07 00:57 | 38.51542 | 121.39021 | 37000 ft | 513 kts | 164° |
| 2026-05-07 00:58 | 38.40812 | 121.52014 | 37000 ft | 571 kts | 122° |
| 2026-05-07 00:58 | 38.36697 | 121.71691 | 36990 ft | 587 kts | 104° |
| 2026-05-07 00:58 | 38.30101 | 122.12347 | 36981 ft | 583 kts | 107° |
| 2026-05-07 00:59 | 38.20652 | 122.50908 | 36974 ft | 547 kts | 141° |
| 2026-05-07 00:59 | 38.10189 | 122.64547 | 36963 ft | 541 kts | 144° |
| 2026-05-07 01:00 | 37.89048 | 122.91811 | 36954 ft | 539 kts | 143° |
| 2026-05-07 01:00 | 37.79092 | 123.04682 | 36954 ft | 537 kts | 144° |
| 2026-05-07 01:01 | 37.58169 | 123.31426 | 36941 ft | 532 kts | 143° |
| 2026-05-07 01:01 | 37.45749 | 123.51604 | 36939 ft | 539 kts | 135° |
| 2026-05-07 01:02 | 37.41686 | 123.58439 | 36936 ft | 539 kts | 135° |